Time;durP1;ratioP1;P1;durP2;ratioP2;P2;SDS_P1;SDS_P2;PMS_P1;PMS_P2;Temp;Humidity;BMP_temperature;BMP_pressure;BME280_temperature;BME280_humidity;BME280_pressure;Samples;Min_cycle;Max_cycle;Signal;HPM_P1;HPM_P2
2022/12/22 03:25:52;;;;;;;2.10;1.00;;;;;;;8.95;100.00;97420.25;5065209;28;20216;-71
2022/12/22 03:28:21;;;;;;;1.87;1.10;;;;;;;8.92;100.00;97413.53;5053447;28;20201;-71
2022/12/22 03:31:03;;;;;;;1.23;0.90;;;;;;;8.98;100.00;97411.84;5061552;28;20221;-71
2022/12/22 03:33:31;;;;;;;1.27;1.00;;;;;;;8.98;100.00;97404.72;5073698;28;20188;-71
2022/12/22 03:35:58;;;;;;;1.73;0.93;;;;;;;8.93;100.00;97390.50;5063542;28;20566;-71
2022/12/22 03:38:26;;;;;;;0.87;0.83;;;;;;;8.95;100.00;97383.94;5053118;28;20239;-71
2022/12/22 03:40:52;;;;;;;0.90;0.90;;;;;;;8.91;100.00;97374.81;5053259;28;20719;-71
2022/12/22 03:46:31;;;;;;;2.50;0.90;;;;;;;8.92;100.00;97375.66;4979218;28;20204;-71
2022/12/22 03:49:11;;;;;;;1.13;1.00;;;;;;;8.97;100.00;97373.13;5052710;28;20666;-71
2022/12/22 03:51:49;;;;;;;1.27;0.80;;;;;;;9.14;100.00;97385.50;5066225;28;20274;-71
2022/12/22 03:54:18;;;;;;;2.13;0.97;;;;;;;9.18;100.00;97377.91;5071987;28;20196;-71
2022/12/22 03:56:45;;;;;;;1.33;0.70;;;;;;;9.13;100.00;97375.94;5073251;28;20211;-71
2022/12/22 03:59:12;;;;;;;0.93;0.73;;;;;;;9.13;100.00;97377.78;5065928;28;20686;-70
2022/12/22 04:01:42;;;;;;;0.90;0.90;;;;;;;9.11;100.00;97385.97;5053212;28;20232;-71
2022/12/22 04:04:08;;;;;;;2.20;0.80;;;;;;;9.08;100.00;97370.50;5069840;28;20224;-70
2022/12/22 04:06:35;;;;;;;1.20;0.70;;;;;;;9.12;100.00;97370.88;5077494;28;20210;-70
2022/12/22 04:09:02;;;;;;;1.03;0.70;;;;;;;9.23;100.00;97378.06;5065532;28;20215;-71
2022/12/22 04:14:12;;;;;;;0.67;0.67;;;;;;;9.29;100.00;97375.31;5070509;28;20187;-71
2022/12/22 04:16:38;;;;;;;2.47;0.80;;;;;;;9.35;100.00;97371.75;5057245;28;20212;-70
2022/12/22 04:19:06;;;;;;;0.60;0.60;;;;;;;9.30;100.00;97366.31;5056677;28;20571;-71
2022/12/22 04:21:33;;;;;;;1.00;0.57;;;;;;;9.37;100.00;97366.22;5056888;28;20332;-71
2022/12/22 04:23:59;;;;;;;1.43;0.70;;;;;;;9.33;100.00;97365.03;5056304;28;20589;-71
2022/12/22 04:26:26;;;;;;;0.90;0.70;;;;;;;9.35;100.00;97369.09;5056695;28;20205;-71
2022/12/22 04:28:53;;;;;;;1.33;0.80;;;;;;;9.36;100.00;97361.91;5057044;28;20231;-70
2022/12/22 04:31:21;;;;;;;1.33;0.70;;;;;;;9.36;100.00;97353.97;5055981;28;20591;-70
2022/12/22 04:33:47;;;;;;;1.13;0.70;;;;;;;9.34;100.00;97345.44;5056726;28;20197;-71
2022/12/22 04:36:14;;;;;;;1.23;0.60;;;;;;;9.31;100.00;97349.34;5056253;28;20212;-71
2022/12/22 04:38:41;;;;;;;1.03;0.63;;;;;;;9.30;100.00;97334.47;5075693;28;20207;-71
2022/12/22 04:41:08;;;;;;;0.60;0.60;;;;;;;9.36;100.00;97327.44;5076617;28;20228;-71
2022/12/22 04:43:35;;;;;;;2.43;0.70;;;;;;;9.25;100.00;97334.38;5056056;28;20236;-71
2022/12/22 04:46:01;;;;;;;0.93;0.80;;;;;;;9.27;100.00;97329.63;5056503;28;20216;-70
2022/12/22 04:48:28;;;;;;;0.87;0.70;;;;;;;9.31;100.00;97324.66;5056147;28;20233;-71
2022/12/22 04:50:57;;;;;;;2.23;0.70;;;;;;;9.28;100.00;97338.41;5057422;28;20228;-71
2022/12/22 04:53:24;;;;;;;0.60;0.60;;;;;;;9.33;100.00;97327.91;5056226;28;20669;-70
2022/12/22 04:56:02;;;;;;;2.43;0.90;;;;;;;9.27;100.00;97323.50;5055959;28;20201;-71
2022/12/22 04:58:30;;;;;;;1.23;0.70;;;;;;;9.16;100.00;97322.47;5056069;28;20212;-71
2022/12/22 05:00:57;;;;;;;0.80;0.80;;;;;;;9.28;100.00;97325.13;5055833;28;20221;-71
2022/12/22 05:03:24;;;;;;;1.30;0.83;;;;;;;9.31;100.00;97329.97;5055780;28;20228;-71
2022/12/22 05:05:50;;;;;;;3.73;0.70;;;;;;;9.45;100.00;97326.06;5055598;28;20202;-71
2022/12/22 05:08:17;;;;;;;0.70;0.70;;;;;;;9.35;100.00;97321.34;5055275;28;20209;-71
2022/12/22 05:10:43;;;;;;;3.40;0.80;;;;;;;9.51;100.00;97323.31;5055461;28;20205;-71
2022/12/22 05:13:09;;;;;;;1.27;0.80;;;;;;;9.64;100.00;97330.25;5055177;28;20570;-71
2022/12/22 05:15:36;;;;;;;2.60;0.80;;;;;;;9.60;100.00;97329.88;5055799;28;20564;-71
2022/12/22 05:18:03;;;;;;;3.63;0.80;;;;;;;9.67;100.00;97330.59;5055157;28;20672;-70
2022/12/22 05:20:30;;;;;;;2.43;1.00;;;;;;;9.69;100.00;97333.03;5056288;28;20212;-71
2022/12/22 05:22:57;;;;;;;1.70;0.80;;;;;;;9.68;100.00;97331.41;5055130;28;20231;-71
2022/12/22 05:25:24;;;;;;;0.60;0.60;;;;;;;9.67;100.00;97327.94;5076109;28;20215;-71
2022/12/22 05:27:50;;;;;;;0.97;0.70;;;;;;;9.81;100.00;97321.34;5075879;28;20205;-70
2022/12/22 05:30:18;;;;;;;0.70;0.70;;;;;;;9.74;100.00;97323.31;5055203;28;20205;-70
2022/12/22 05:32:45;;;;;;;0.87;0.70;;;;;;;9.70;100.00;97324.84;5055603;28;20248;-71
2022/12/22 05:35:12;;;;;;;3.10;0.97;;;;;;;9.74;100.00;97330.47;5073807;28;20208;-70
2022/12/22 05:37:38;;;;;;;2.33;1.10;;;;;;;9.76;100.00;97334.53;5075517;28;20204;-70
2022/12/22 05:40:06;;;;;;;3.30;1.07;;;;;;;9.75;100.00;97332.09;5057061;28;20209;-71
2022/12/22 05:42:38;;;;;;;2.30;0.97;;;;;;;9.82;100.00;97324.84;5055341;28;20302;-71
2022/12/22 05:45:19;;;;;;;2.00;0.93;;;;;;;9.76;100.00;97323.09;5070661;28;20200;-71
2022/12/22 05:47:48;;;;;;;3.30;1.00;;;;;;;9.55;100.00;97319.16;5055078;28;20232;-71
2022/12/22 05:50:18;;;;;;;2.20;1.07;;;;;;;9.59;100.00;97328.28;5054685;28;20201;-71
2022/12/22 05:52:45;;;;;;;4.23;0.80;;;;;;;9.63;100.00;97315.34;5055178;28;20584;-71
2022/12/22 05:55:12;;;;;;;2.93;0.93;;;;;;;9.68;100.00;97320.78;5070898;28;20209;-70
2022/12/22 05:57:38;;;;;;;3.93;1.07;;;;;;;9.71;100.00;97320.31;5072831;28;20197;-70
2022/12/22 06:00:07;;;;;;;1.97;0.80;;;;;;;9.55;100.00;97310.41;5063398;28;20200;-71
2022/12/22 06:02:34;;;;;;;3.07;1.00;;;;;;;9.37;100.00;97299.91;5069524;28;20229;-71
2022/12/22 06:05:00;;;;;;;3.33;0.90;;;;;;;9.35;100.00;97304.59;5054309;28;20201;-71
2022/12/22 06:07:26;;;;;;;2.33;1.03;;;;;;;9.24;100.00;97297.47;5054810;28;20205;-71
2022/12/22 06:09:53;;;;;;;4.10;1.47;;;;;;;9.18;100.00;97309.78;5054834;28;20224;-71
2022/12/22 06:12:19;;;;;;;2.03;0.90;;;;;;;9.12;100.00;97312.53;5066728;28;20220;-71
2022/12/22 06:14:46;;;;;;;1.73;0.90;;;;;;;8.96;100.00;97310.53;5074491;28;20204;-71
2022/12/22 06:17:12;;;;;;;3.07;1.17;;;;;;;8.93;100.00;97316.28;5054517;28;20205;-71
2022/12/22 06:19:38;;;;;;;2.53;1.00;;;;;;;8.82;100.00;97315.22;5054520;28;20209;-71
2022/12/22 06:22:05;;;;;;;3.30;1.23;;;;;;;8.77;100.00;97307.13;5071790;28;20240;-71
2022/12/22 06:24:31;;;;;;;4.10;1.20;;;;;;;8.72;100.00;97300.88;5059000;28;20239;-71
2022/12/22 06:26:57;;;;;;;4.23;1.20;;;;;;;8.74;100.00;97304.13;5053390;28;20197;-71
2022/12/22 06:29:24;;;;;;;3.63;1.20;;;;;;;8.71;100.00;97312.53;5055239;28;20222;-70
2022/12/22 06:31:50;;;;;;;5.37;1.27;;;;;;;8.71;100.00;97310.69;5057373;28;20217;-70
2022/12/22 06:34:17;;;;;;;4.97;1.53;;;;;;;8.57;100.00;97316.38;5053712;28;20209;-70
2022/12/22 06:36:46;;;;;;;5.07;1.40;;;;;;;8.80;100.00;97309.34;5057577;28;20209;-70
2022/12/22 06:39:15;;;;;;;2.57;1.00;;;;;;;8.78;100.00;97313.25;5074621;28;20200;-71
2022/12/22 06:44:26;;;;;;;4.57;1.40;;;;;;;8.68;100.00;97307.66;5065860;28;20215;-70
2022/12/22 06:46:52;;;;;;;5.10;1.50;;;;;;;8.95;100.00;97301.78;5073940;28;20204;-71
2022/12/22 06:49:20;;;;;;;5.10;1.63;;;;;;;9.19;100.00;97300.00;5058743;28;20205;-70
2022/12/22 06:51:46;;;;;;;7.47;2.00;;;;;;;9.64;100.00;97307.16;5053856;28;20222;-70
2022/12/22 06:54:12;;;;;;;4.97;1.60;;;;;;;9.94;100.00;97312.34;5054156;28;20227;-70
2022/12/22 06:56:39;;;;;;;7.27;1.33;;;;;;;10.20;100.00;97303.91;5057462;28;20211;-70
2022/12/22 06:59:05;;;;;;;8.07;2.07;;;;;;;10.40;100.00;97315.75;5072078;28;20220;-70
2022/12/22 07:01:32;;;;;;;4.57;1.50;;;;;;;10.49;100.00;97324.97;5069087;28;20227;-70
2022/12/22 07:03:58;;;;;;;6.57;1.70;;;;;;;10.48;100.00;97312.72;5058649;28;20220;-70
2022/12/22 07:06:25;;;;;;;6.03;1.53;;;;;;;10.61;100.00;97319.63;5072145;28;20228;-70
2022/12/22 07:08:51;;;;;;;6.37;1.40;;;;;;;10.53;100.00;97339.41;5073634;28;20201;-70
2022/12/22 07:11:17;;;;;;;7.60;2.00;;;;;;;10.36;100.00;97340.38;5072031;28;20231;-70
2022/12/22 07:13:44;;;;;;;4.60;1.57;;;;;;;10.42;100.00;97347.41;5073169;28;20205;-70
2022/12/22 07:16:12;;;;;;;3.77;1.50;;;;;;;10.44;100.00;97338.16;5066006;28;20206;-70
2022/12/22 07:18:40;;;;;;;8.83;2.10;;;;;;;10.50;100.00;97350.50;5060516;28;20315;-70
2022/12/22 07:21:09;;;;;;;5.53;1.80;;;;;;;10.45;100.00;97323.81;5058140;28;20220;-70
2022/12/22 07:23:37;;;;;;;4.70;1.47;;;;;;;10.50;100.00;97336.41;5062080;28;20201;-70
2022/12/22 07:26:05;;;;;;;7.07;2.10;;;;;;;10.30;100.00;97350.09;5060904;28;20205;-70
2022/12/22 07:28:36;;;;;;;4.67;1.70;;;;;;;10.39;100.00;97351.34;5061930;28;20236;-70
2022/12/22 07:31:03;;;;;;;5.03;1.17;;;;;;;10.46;100.00;97351.22;5059503;28;20227;-70
2022/12/22 07:33:30;;;;;;;6.00;1.70;;;;;;;10.40;100.00;97360.91;5064120;28;20227;-70
2022/12/22 07:36:05;;;;;;;8.10;1.77;;;;;;;10.46;100.00;97354.66;5062815;28;20291;-70
2022/12/22 07:38:37;;;;;;;5.17;1.50;;;;;;;10.52;100.00;97367.03;5065149;28;20199;-70
2022/12/22 07:42:43;;;;;;;5.27;1.53;;;;;;;10.51;100.00;97364.59;5058141;28;20239;-70
2022/12/22 07:43:51;;;;;;;6.63;1.43;;;;;;;10.30;100.00;97357.25;5052474;28;20711;-71
2022/12/22 07:46:18;;;;;;;5.63;1.90;;;;;;;10.23;100.00;97369.84;5052550;28;20216;-70
2022/12/22 07:51:32;;;;;;;7.73;1.90;;;;;;;10.40;100.00;97382.19;5052318;28;20298;-70
2022/12/22 07:53:58;;;;;;;5.57;1.83;;;;;;;10.33;100.00;97381.47;5052985;28;20193;-70
2022/12/22 07:56:25;;;;;;;6.43;1.40;;;;;;;10.40;100.00;97371.56;5052064;28;20216;-70
2022/12/22 07:58:51;;;;;;;7.27;1.43;;;;;;;10.38;100.00;97336.44;5052864;28;20209;-70
2022/12/22 08:01:17;;;;;;;6.30;1.47;;;;;;;10.23;100.00;97332.66;5052007;28;20229;-70
2022/12/22 08:03:44;;;;;;;5.57;1.40;;;;;;;10.07;100.00;97339.50;5052978;28;20241;-70
2022/12/22 08:06:10;;;;;;;8.77;2.00;;;;;;;9.85;100.00;97357.03;5052138;28;20215;-70
2022/12/22 08:08:36;;;;;;;6.00;1.50;;;;;;;9.95;100.00;97348.47;5053061;28;20224;-71
2022/12/22 08:11:03;;;;;;;5.33;1.37;;;;;;;9.92;100.00;97348.94;5052107;28;20228;-70
2022/12/22 08:13:30;;;;;;;5.07;1.60;;;;;;;9.93;100.00;97351.38;5052697;28;20656;-71
2022/12/22 08:16:03;;;;;;;7.97;2.10;;;;;;;9.78;100.00;97358.19;5052521;28;20205;-70
2022/12/22 08:18:30;;;;;;;4.70;1.50;;;;;;;9.86;100.00;97349.88;5053081;28;20213;-70
2022/12/22 08:20:56;;;;;;;4.97;1.30;;;;;;;10.00;100.00;97356.56;5051769;28;20708;-71
2022/12/22 08:23:23;;;;;;;6.83;1.77;;;;;;;9.89;100.00;97358.19;5052562;28;20699;-71
2022/12/22 08:25:59;;;;;;;7.57;1.53;;;;;;;9.83;100.00;97353.00;5052228;28;20208;-70
2022/12/22 08:28:25;;;;;;;7.23;1.40;;;;;;;9.81;100.00;97368.31;5051390;28;20660;-70
2022/12/22 08:30:52;;;;;;;5.27;2.10;;;;;;;9.82;100.00;97362.00;5052237;28;20236;-71
2022/12/22 08:33:18;;;;;;;6.13;1.67;;;;;;;9.88;100.00;97355.75;5052570;28;20205;-71
2022/12/22 08:35:45;;;;;;;6.10;1.67;;;;;;;9.87;100.00;97346.97;5052223;28;20231;-70
2022/12/22 08:38:14;;;;;;;6.10;1.50;;;;;;;9.91;100.00;97356.09;5052425;28;20703;-71
2022/12/22 08:40:43;;;;;;;6.10;1.63;;;;;;;10.05;100.00;97359.38;5050870;28;20210;-71
2022/12/22 08:43:11;;;;;;;5.37;1.47;;;;;;;10.06;100.00;97361.78;5064785;28;20215;-70
2022/12/22 08:45:37;;;;;;;6.43;1.80;;;;;;;10.23;100.00;97368.00;5063922;28;20201;-70
2022/12/22 08:48:04;;;;;;;5.43;1.83;;;;;;;10.25;100.00;97370.41;5052674;28;20209;-71
2022/12/22 08:50:30;;;;;;;7.03;1.80;;;;;;;10.13;100.00;97372.28;5053133;28;20209;-70
2022/12/22 08:53:04;;;;;;;4.60;1.20;;;;;;;10.24;100.00;97369.63;5056306;28;20206;-71
2022/12/22 08:55:31;;;;;;;6.23;1.90;;;;;;;10.22;100.00;97378.84;5055688;28;20201;-71
2022/12/22 08:57:58;;;;;;;6.73;1.43;;;;;;;10.34;100.00;97369.03;5055882;28;20209;-70
2022/12/22 09:00:25;;;;;;;6.53;2.00;;;;;;;10.51;100.00;97361.94;5055629;28;20209;-71
2022/12/22 09:02:52;;;;;;;8.53;1.70;;;;;;;10.58;100.00;97351.97;5055777;28;20236;-70
2022/12/22 09:05:19;;;;;;;5.13;1.47;;;;;;;10.79;100.00;97365.44;5055850;28;20222;-70
2022/12/22 09:07:47;;;;;;;6.73;1.77;;;;;;;10.93;100.00;97363.31;5056108;28;20205;-70
2022/12/22 09:10:14;;;;;;;5.50;1.67;;;;;;;11.13;100.00;97363.69;5055218;28;20273;-71
2022/12/22 09:12:40;;;;;;;6.30;1.90;;;;;;;11.29;100.00;97365.56;5055566;28;20225;-70
2022/12/22 09:15:08;;;;;;;5.97;1.87;;;;;;;11.28;100.00;97366.59;5055351;28;20212;-71
2022/12/22 09:17:36;;;;;;;4.47;1.50;;;;;;;11.25;100.00;97375.06;5055948;28;20210;-71
2022/12/22 09:20:04;;;;;;;8.37;2.00;;;;;;;10.99;100.00;97373.78;5055131;28;20220;-71
2022/12/22 09:22:30;;;;;;;6.87;1.97;;;;;;;10.60;100.00;97384.44;5055331;28;20286;-71
2022/12/22 09:24:56;;;;;;;5.33;1.60;;;;;;;10.50;100.00;97376.28;5054661;28;20587;-70
2022/12/22 09:27:23;;;;;;;5.17;1.60;;;;;;;10.39;100.00;97379.75;5054351;28;20683;-71
2022/12/22 09:29:49;;;;;;;7.67;1.90;;;;;;;10.19;100.00;97381.97;5057728;28;20626;-70
2022/12/22 09:32:15;;;;;;;5.70;1.97;;;;;;;10.12;100.00;97379.44;5055318;28;20731;-70
2022/12/22 09:34:42;;;;;;;5.67;1.57;;;;;;;10.12;100.00;97382.09;5054675;28;20653;-71
2022/12/22 09:37:08;;;;;;;6.97;1.60;;;;;;;10.14;100.00;97392.50;5055190;28;20683;-71
2022/12/22 09:39:34;;;;;;;6.97;1.80;;;;;;;10.04;100.00;97402.84;5055021;28;20211;-74
2022/12/22 09:42:01;;;;;;;6.70;2.03;;;;;;;9.96;100.00;97397.91;5055479;28;20236;-70
2022/12/22 09:44:32;;;;;;;5.17;1.37;;;;;;;10.00;100.00;97404.38;5054606;28;20228;-70
2022/12/22 09:47:09;;;;;;;6.00;1.90;;;;;;;9.85;100.00;97401.34;5055428;28;20186;-71
2022/12/22 09:49:36;;;;;;;4.87;1.40;;;;;;;9.87;100.00;97386.00;5053448;28;20201;-70
2022/12/22 09:52:04;;;;;;;6.47;1.50;;;;;;;9.84;100.00;97386.44;5055174;28;20229;-70
2022/12/22 09:54:31;;;;;;;7.00;1.60;;;;;;;9.81;100.00;97385.06;5054648;28;20240;-70
2022/12/22 09:56:58;;;;;;;9.03;1.60;;;;;;;9.76;100.00;97384.94;5054966;28;20553;-70
2022/12/22 09:59:27;;;;;;;7.03;1.60;;;;;;;9.77;100.00;97383.13;5054203;28;20214;-70
2022/12/22 10:02:18;;;;;;;9.77;2.10;;;;;;;9.76;100.00;97384.94;5053867;28;20233;-70
2022/12/22 10:04:58;;;;;;;6.37;1.73;;;;;;;9.83;100.00;97395.47;5053189;28;20228;-70
2022/12/22 10:07:35;;;;;;;6.93;1.93;;;;;;;9.86;100.00;97389.69;5055045;28;20197;-70
2022/12/22 10:10:27;;;;;;;3.97;1.67;;;;;;;9.93;100.00;97398.34;5054253;28;20255;-70
2022/12/22 10:12:59;;;;;;;4.17;1.63;;;;;;;9.95;100.00;97393.59;5054630;28;20225;-71
2022/12/22 10:15:26;;;;;;;4.67;1.40;;;;;;;9.96;100.00;97409.31;5054333;28;20201;-71
2022/12/22 10:18:08;;;;;;;5.13;1.23;;;;;;;10.06;100.00;97414.09;5054788;28;20213;-71
2022/12/22 10:20:37;;;;;;;5.00;1.33;;;;;;;10.18;100.00;97414.91;5053932;28;20665;-70
2022/12/22 10:23:16;;;;;;;6.10;1.77;;;;;;;10.25;100.00;97418.22;5053792;28;20250;-70
2022/12/22 10:25:58;;;;;;;3.60;1.40;;;;;;;10.28;100.00;97423.88;5054276;28;20213;-70
2022/12/22 10:28:39;;;;;;;2.90;1.40;;;;;;;10.26;100.00;97433.94;5053783;28;20220;-70
2022/12/22 10:31:10;;;;;;;5.43;1.37;;;;;;;10.28;100.00;97431.06;5053970;28;20699;-71
2022/12/22 10:33:38;;;;;;;3.37;0.93;;;;;;;10.25;100.00;97434.16;5054561;28;20205;-70
2022/12/22 10:36:05;;;;;;;4.63;1.40;;;;;;;10.21;100.00;97439.16;5054431;28;20219;-70
2022/12/22 10:38:51;;;;;;;4.00;1.43;;;;;;;10.16;100.00;97438.22;5053823;28;20219;-70
2022/12/22 10:41:20;;;;;;;3.77;1.00;;;;;;;10.14;100.00;97442.97;5053733;28;20228;-70
2022/12/22 10:43:59;;;;;;;4.27;1.30;;;;;;;10.16;100.00;97435.56;5053996;28;20208;-70
2022/12/22 10:46:42;;;;;;;4.87;1.67;;;;;;;10.18;100.00;97428.19;5053423;28;20208;-70
2022/12/22 10:49:28;;;;;;;4.17;1.20;;;;;;;10.14;100.00;97419.06;5053417;28;20568;-70
2022/12/22 10:52:16;;;;;;;3.07;1.20;;;;;;;10.13;100.00;97423.56;5052500;28;20228;-71
2022/12/22 10:54:44;;;;;;;3.90;1.00;;;;;;;10.17;100.00;97423.88;5053915;28;20182;-71
2022/12/22 10:57:14;;;;;;;2.67;1.10;;;;;;;10.19;100.00;97414.66;5056702;28;20204;-71
2022/12/22 11:00:22;;;;;;;3.10;0.90;;;;;;;10.20;100.00;97413.63;5064829;28;20217;-70
2022/12/22 11:02:52;;;;;;;4.60;1.50;;;;;;;10.09;100.00;97398.50;5062246;28;20279;-70
2022/12/22 11:05:19;;;;;;;3.90;1.53;;;;;;;10.19;100.00;97403.22;5053398;28;20213;-70
2022/12/22 11:07:47;;;;;;;3.43;1.07;;;;;;;10.30;100.00;97407.72;5054194;28;20219;-68
2022/12/22 11:10:51;;;;;;;4.77;1.37;;;;;;;10.30;100.00;97424.47;5053328;28;20211;-70
2022/12/22 11:13:54;;;;;;;4.53;1.23;;;;;;;10.28;100.00;97407.16;5053476;28;20193;-70
2022/12/22 11:16:32;;;;;;;4.10;1.20;;;;;;;10.37;100.00;97403.88;5052938;28;20624;-70
2022/12/22 11:19:18;;;;;;;3.70;1.50;;;;;;;10.47;100.00;97408.63;5052325;28;20185;-70
2022/12/22 11:22:00;;;;;;;2.83;1.20;;;;;;;10.51;100.00;97409.78;5072725;28;20236;-71
2022/12/22 11:24:40;;;;;;;4.97;1.10;;;;;;;10.64;100.00;97414.84;5070599;28;20204;-71
2022/12/22 11:27:22;;;;;;;2.80;1.00;;;;;;;10.77;100.00;97411.91;5054373;28;20204;-71
2022/12/22 11:30:06;;;;;;;4.13;1.10;;;;;;;10.85;100.00;97412.34;5052660;28;20197;-71
2022/12/22 11:32:57;;;;;;;2.70;1.00;;;;;;;10.91;100.00;97421.25;5053348;28;20221;-71
2022/12/22 11:35:30;;;;;;;1.83;1.07;;;;;;;10.96;100.00;97400.84;5052724;28;20198;-70
2022/12/22 11:38:05;;;;;;;4.47;1.07;;;;;;;10.90;100.00;97414.28;5053039;28;20196;-71
2022/12/22 11:40:38;;;;;;;1.47;0.70;;;;;;;10.96;100.00;97416.81;5050753;28;20207;-70
2022/12/22 11:43:26;;;;;;;4.47;1.00;;;;;;;10.97;100.00;97433.59;5053124;28;20194;-71
2022/12/22 11:46:14;;;;;;;1.30;0.80;;;;;;;11.03;100.00;97432.63;5053796;28;20229;-71
2022/12/22 11:49:03;;;;;;;3.33;0.87;;;;;;;11.09;100.00;97437.03;5052880;28;20658;-71
2022/12/22 11:52:08;;;;;;;2.70;1.00;;;;;;;11.14;100.00;97429.94;5068974;28;20229;-71
2022/12/22 11:54:43;;;;;;;1.90;0.77;;;;;;;11.19;100.00;97423.91;5058859;28;20216;-71
2022/12/22 11:57:36;;;;;;;2.50;0.70;;;;;;;11.25;100.00;97428.28;5072860;28;20210;-70
2022/12/22 12:00:10;;;;;;;1.87;0.90;;;;;;;11.42;100.00;97418.47;5071951;28;20198;-71
2022/12/22 12:02:46;;;;;;;1.93;0.50;;;;;;;11.66;100.00;97427.97;5072833;28;20221;-71
2022/12/22 12:05:34;;;;;;;2.17;0.90;;;;;;;11.75;100.00;97415.88;5064087;28;20216;-71
2022/12/22 12:08:25;;;;;;;2.50;0.70;;;;;;;11.85;100.00;97428.56;5068432;28;20198;-70
2022/12/22 12:11:10;;;;;;;1.50;0.87;;;;;;;11.81;100.00;97427.44;5059754;28;20725;-71
2022/12/22 12:13:45;;;;;;;1.13;0.70;;;;;;;11.83;100.00;97435.97;5051811;28;20188;-71
2022/12/22 12:16:32;;;;;;;1.63;0.80;;;;;;;11.84;100.00;97430.41;5052536;28;20206;-71
2022/12/22 12:19:20;;;;;;;1.80;0.70;;;;;;;11.85;100.00;97440.00;5051891;28;20187;-71
2022/12/22 12:21:52;;;;;;;2.00;0.73;;;;;;;11.91;100.00;97451.56;5052241;28;20240;-71
2022/12/22 12:24:30;;;;;;;1.47;0.70;;;;;;;12.09;100.00;97451.31;5052844;28;20222;-72
2022/12/22 12:27:18;;;;;;;1.70;0.80;;;;;;;12.09;100.00;97444.16;5056357;28;20217;-71
2022/12/22 12:29:52;;;;;;;2.53;0.70;;;;;;;12.10;100.00;97442.28;5055305;28;20196;-71
2022/12/22 12:32:23;;;;;;;1.10;0.80;;;;;;;12.00;100.00;97436.78;5055570;28;20227;-71
2022/12/22 12:34:57;;;;;;;1.53;0.70;;;;;;;11.99;100.00;97449.31;5056418;28;20192;-72
2022/12/22 12:37:45;;;;;;;2.10;0.93;;;;;;;12.00;100.00;97461.59;5038821;28;20722;-71
2022/12/22 12:40:47;;;;;;;4.40;0.97;;;;;;;11.95;100.00;97456.19;5055789;28;20229;-71
2022/12/22 12:43:15;;;;;;;1.30;0.80;;;;;;;11.94;100.00;97462.53;5056042;28;20193;-70
2022/12/22 12:45:44;;;;;;;1.73;0.90;;;;;;;11.83;100.00;97467.94;5055401;28;20224;-71
2022/12/22 12:48:37;;;;;;;2.57;0.80;;;;;;;11.81;100.00;97470.84;5056194;28;20228;-71
2022/12/22 12:51:42;;;;;;;3.17;1.37;;;;;;;11.76;100.00;97468.09;5055265;28;20229;-71
2022/12/22 12:54:30;;;;;;;1.30;0.97;;;;;;;11.79;100.00;97470.28;5056643;28;20223;-70
2022/12/22 12:57:01;;;;;;;2.67;0.80;;;;;;;11.82;100.00;97474.31;5055241;28;20286;-70
2022/12/22 12:59:39;;;;;;;3.20;0.80;;;;;;;11.76;100.00;97469.97;5055874;28;20192;-70
2022/12/22 13:02:28;;;;;;;1.87;0.70;;;;;;;11.85;100.00;97481.84;5055517;28;20249;-70
2022/12/22 13:05:12;;;;;;;2.63;0.70;;;;;;;11.96;100.00;97492.41;5056005;28;20234;-71
2022/12/22 13:08:06;;;;;;;1.17;0.70;;;;;;;11.88;100.00;97489.31;5055205;28;20448;-71
2022/12/22 13:10:35;;;;;;;3.10;0.80;;;;;;;11.88;100.00;97492.81;5055327;28;20674;-71
2022/12/22 13:13:02;;;;;;;2.37;0.90;;;;;;;11.87;99.64;97487.72;5055956;28;20240;-70
2022/12/22 13:15:32;;;;;;;1.53;0.70;;;;;;;11.86;100.00;97508.22;5055150;28;20218;-71
2022/12/22 13:18:00;;;;;;;2.10;0.70;;;;;;;11.84;100.00;97507.66;5055342;28;20294;-71
2022/12/22 13:20:33;;;;;;;2.17;0.80;;;;;;;11.89;99.45;97521.03;5054188;28;20207;-71
2022/12/22 13:23:02;;;;;;;3.53;0.87;;;;;;;11.89;99.38;97529.03;5055506;28;20673;-71
2022/12/22 13:25:48;;;;;;;2.70;1.00;;;;;;;11.87;99.80;97525.81;5054943;28;20223;-70
2022/12/22 13:28:17;;;;;;;3.00;0.83;;;;;;;11.84;99.21;97520.97;5054193;28;20538;-71
2022/12/22 13:30:57;;;;;;;2.30;0.83;;;;;;;11.83;98.55;97530.00;5055100;28;20694;-73
2022/12/22 13:33:26;;;;;;;2.33;1.00;;;;;;;11.83;99.20;97532.66;5054755;28;20635;-70
2022/12/22 13:35:53;;;;;;;3.43;1.13;;;;;;;11.75;100.00;97535.72;5056134;28;20219;-71
2022/12/22 13:38:34;;;;;;;2.60;0.80;;;;;;;11.75;99.63;97538.38;5053506;28;20665;-70
2022/12/22 13:41:15;;;;;;;3.43;0.83;;;;;;;11.84;99.51;97531.63;5055138;28;20231;-71
2022/12/22 13:43:45;;;;;;;2.87;0.80;;;;;;;11.87;99.00;97536.47;5054447;28;20227;-71
2022/12/22 13:46:11;;;;;;;5.00;1.07;;;;;;;11.92;97.41;97533.91;5054252;28;20224;-71
2022/12/22 13:48:46;;;;;;;2.53;0.83;;;;;;;11.92;99.48;97536.56;5061323;28;20676;-71
2022/12/22 13:51:31;;;;;;;2.60;0.80;;;;;;;11.91;97.66;97532.28;5065400;28;20215;-71
2022/12/22 13:54:22;;;;;;;3.43;1.07;;;;;;;11.94;99.76;97544.31;5051754;28;20228;-71
2022/12/22 13:57:00;;;;;;;2.20;0.80;;;;;;;11.81;99.31;97549.94;5053907;28;20674;-71
2022/12/22 13:59:33;;;;;;;1.73;0.80;;;;;;;11.86;98.03;97547.34;5055779;28;20203;-71
2022/12/22 14:02:13;;;;;;;2.27;0.80;;;;;;;11.88;96.98;97555.91;5052834;28;20586;-71
2022/12/22 14:05:01;;;;;;;1.77;0.90;;;;;;;11.78;98.11;97553.06;5054594;28;20219;-70
2022/12/22 14:07:27;;;;;;;3.13;0.87;;;;;;;11.79;96.86;97560.81;5053911;28;20659;-71
2022/12/22 14:09:57;;;;;;;2.43;0.93;;;;;;;11.64;100.00;97567.72;5054602;28;20213;-71
2022/12/22 14:12:27;;;;;;;3.40;0.90;;;;;;;11.57;100.00;97567.03;5054210;28;20226;-71
2022/12/22 14:14:55;;;;;;;2.30;1.00;;;;;;;11.63;100.00;97572.25;5054319;28;20200;-71
2022/12/22 14:17:26;;;;;;;2.37;1.00;;;;;;;11.67;98.52;97568.03;5054375;28;20214;-71
2022/12/22 14:19:56;;;;;;;2.13;1.00;;;;;;;11.69;98.34;97571.28;5054928;28;20227;-71
2022/12/22 14:22:34;;;;;;;4.80;0.90;;;;;;;11.74;98.89;97567.91;5053881;28;20241;-71
2022/12/22 14:25:23;;;;;;;2.00;0.83;;;;;;;11.72;96.68;97570.81;5053557;28;20686;-71
2022/12/22 14:27:53;;;;;;;2.67;0.83;;;;;;;11.75;96.04;97570.31;5053632;28;20228;-71
2022/12/22 14:30:24;;;;;;;2.90;1.03;;;;;;;11.69;96.44;97570.47;5053410;28;20194;-71
2022/12/22 14:32:53;;;;;;;4.37;1.20;;;;;;;11.74;94.51;97568.72;5053915;28;20296;-70
2022/12/22 14:35:20;;;;;;;4.20;1.53;;;;;;;11.68;96.74;97572.34;5053519;28;20232;-70
2022/12/22 14:37:47;;;;;;;3.37;1.10;;;;;;;11.61;96.67;97565.53;5053881;28;20215;-71
2022/12/22 14:40:37;;;;;;;4.27;1.30;;;;;;;11.52;96.60;97565.06;5054239;28;20211;-71
2022/12/22 14:43:07;;;;;;;3.60;1.90;;;;;;;11.49;96.07;97562.84;5053444;28;20229;-71
2022/12/22 14:45:33;;;;;;;6.10;1.70;;;;;;;11.47;96.80;97567.63;5053665;28;20568;-71
2022/12/22 14:48:00;;;;;;;4.77;1.90;;;;;;;11.42;97.78;97572.03;5052971;28;20201;-71
2022/12/22 14:50:28;;;;;;;4.80;1.77;;;;;;;11.39;97.49;97583.16;5061192;28;20210;-71
2022/12/22 14:52:58;;;;;;;9.27;1.73;;;;;;;11.39;97.91;97585.81;5064576;28;22354;-71
2022/12/22 14:55:33;;;;;;;6.30;1.60;;;;;;;11.39;97.14;97572.50;5060385;28;20225;-71
2022/12/22 14:58:05;;;;;;;5.33;1.40;;;;;;;11.30;99.39;97574.72;5056118;28;20214;-77
2022/12/22 15:00:34;;;;;;;6.00;1.70;;;;;;;11.34;98.26;97586.50;5067321;28;20201;-72
2022/12/22 15:03:25;;;;;;;8.07;2.03;;;;;;;11.26;98.62;97586.06;5068053;28;20340;-72
2022/12/22 15:05:52;;;;;;;2.83;1.40;;;;;;;11.12;100.00;97598.81;5054108;28;20228;-73
2022/12/22 15:08:37;;;;;;;7.10;2.20;;;;;;;11.20;100.00;97593.13;5057114;28;20206;-71
2022/12/22 15:11:08;;;;;;;6.07;2.00;;;;;;;11.09;100.00;97605.41;5071394;28;20702;-71
2022/12/22 15:13:36;;;;;;;4.47;1.53;;;;;;;11.05;100.00;97598.94;5058402;28;20217;-71
2022/12/22 15:16:03;;;;;;;6.63;2.17;;;;;;;11.04;100.00;97615.16;5060138;28;20224;-71
2022/12/22 15:18:29;;;;;;;7.40;2.03;;;;;;;10.98;100.00;97612.59;5055337;28;20572;-71
2022/12/22 15:20:57;;;;;;;5.00;1.60;;;;;;;10.89;100.00;97612.94;5060739;28;20225;-72
2022/12/22 15:23:24;;;;;;;6.20;1.63;;;;;;;10.84;100.00;97615.50;5060934;28;20197;-71
2022/12/22 15:25:50;;;;;;;5.90;1.70;;;;;;;10.80;100.00;97610.84;5053572;28;20229;-71
2022/12/22 15:28:18;;;;;;;5.50;1.97;;;;;;;10.80;100.00;97613.50;5056045;28;20634;-70